sensor_id;sensor_type;location;lat;lon;timestamp;P1;durP1;ratioP1;P2;durP2;ratioP2
5491;SDS011;2768;53.540;10.224;2022-08-19T00:00:35;17.23;;;13.23;;
5491;SDS011;2768;53.540;10.224;2022-08-19T00:06:29;18.73;;;15.20;;
5491;SDS011;2768;53.540;10.224;2022-08-19T00:12:23;16.00;;;14.30;;
5491;SDS011;2768;53.540;10.224;2022-08-19T00:18:17;20.90;;;16.00;;
5491;SDS011;2768;53.540;10.224;2022-08-19T00:24:12;17.43;;;14.20;;
5491;SDS011;2768;53.540;10.224;2022-08-19T00:30:07;20.73;;;13.00;;
5491;SDS011;2768;53.540;10.224;2022-08-19T00:36:04;16.13;;;13.83;;
5491;SDS011;2768;53.540;10.224;2022-08-19T00:41:59;17.67;;;15.80;;
5491;SDS011;2768;53.540;10.224;2022-08-19T00:47:53;18.63;;;16.40;;
5491;SDS011;2768;53.540;10.224;2022-08-19T00:53:48;21.17;;;18.90;;
5491;SDS011;2768;53.540;10.224;2022-08-19T00:59:42;26.60;;;21.70;;
5491;SDS011;2768;53.540;10.224;2022-08-19T01:05:53;25.80;;;21.30;;
5491;SDS011;2768;53.540;10.224;2022-08-19T01:11:49;25.93;;;19.57;;
5491;SDS011;2768;53.540;10.224;2022-08-19T01:17:43;23.80;;;19.40;;
5491;SDS011;2768;53.540;10.224;2022-08-19T01:23:39;24.60;;;19.70;;
5491;SDS011;2768;53.540;10.224;2022-08-19T01:29:38;30.03;;;22.50;;
5491;SDS011;2768;53.540;10.224;2022-08-19T01:35:36;26.07;;;20.20;;
5491;SDS011;2768;53.540;10.224;2022-08-19T01:41:31;30.80;;;20.13;;
5491;SDS011;2768;53.540;10.224;2022-08-19T01:47:24;28.67;;;21.20;;
5491;SDS011;2768;53.540;10.224;2022-08-19T01:53:18;25.40;;;19.53;;
5491;SDS011;2768;53.540;10.224;2022-08-19T01:59:15;23.57;;;18.93;;
5491;SDS011;2768;53.540;10.224;2022-08-19T02:05:11;25.63;;;20.87;;
5491;SDS011;2768;53.540;10.224;2022-08-19T02:11:05;26.37;;;20.70;;
5491;SDS011;2768;53.540;10.224;2022-08-19T02:17:00;23.50;;;20.40;;
5491;SDS011;2768;53.540;10.224;2022-08-19T02:22:54;31.87;;;21.70;;
5491;SDS011;2768;53.540;10.224;2022-08-19T02:28:47;20.27;;;17.20;;
5491;SDS011;2768;53.540;10.224;2022-08-19T02:34:42;21.77;;;18.57;;
5491;SDS011;2768;53.540;10.224;2022-08-19T02:40:35;20.20;;;18.20;;
5491;SDS011;2768;53.540;10.224;2022-08-19T02:46:30;23.90;;;19.80;;
5491;SDS011;2768;53.540;10.224;2022-08-19T02:52:26;23.17;;;19.77;;
5491;SDS011;2768;53.540;10.224;2022-08-19T02:58:19;21.77;;;18.03;;
5491;SDS011;2768;53.540;10.224;2022-08-19T03:04:15;23.17;;;18.57;;
5491;SDS011;2768;53.540;10.224;2022-08-19T03:10:10;24.30;;;19.40;;
5491;SDS011;2768;53.540;10.224;2022-08-19T03:16:07;21.20;;;17.83;;
5491;SDS011;2768;53.540;10.224;2022-08-19T03:22:00;25.30;;;18.50;;
5491;SDS011;2768;53.540;10.224;2022-08-19T03:27:57;26.70;;;19.47;;
5491;SDS011;2768;53.540;10.224;2022-08-19T03:33:50;27.50;;;21.70;;
5491;SDS011;2768;53.540;10.224;2022-08-19T03:39:44;26.87;;;19.60;;
5491;SDS011;2768;53.540;10.224;2022-08-19T03:45:39;33.10;;;20.97;;
5491;SDS011;2768;53.540;10.224;2022-08-19T03:51:34;33.07;;;21.30;;
5491;SDS011;2768;53.540;10.224;2022-08-19T03:57:29;32.07;;;22.30;;
5491;SDS011;2768;53.540;10.224;2022-08-19T04:03:25;37.90;;;22.80;;
5491;SDS011;2768;53.540;10.224;2022-08-19T04:09:19;33.23;;;21.13;;
5491;SDS011;2768;53.540;10.224;2022-08-19T04:15:12;35.80;;;22.73;;
5491;SDS011;2768;53.540;10.224;2022-08-19T04:21:08;34.43;;;23.23;;
5491;SDS011;2768;53.540;10.224;2022-08-19T04:27:07;37.33;;;22.60;;
5491;SDS011;2768;53.540;10.224;2022-08-19T04:33:00;32.53;;;22.07;;
5491;SDS011;2768;53.540;10.224;2022-08-19T04:38:55;31.40;;;21.60;;
5491;SDS011;2768;53.540;10.224;2022-08-19T04:44:51;35.10;;;20.30;;
5491;SDS011;2768;53.540;10.224;2022-08-19T04:50:44;28.27;;;19.63;;
5491;SDS011;2768;53.540;10.224;2022-08-19T04:56:40;33.70;;;22.27;;
5491;SDS011;2768;53.540;10.224;2022-08-19T05:02:33;35.50;;;21.80;;
5491;SDS011;2768;53.540;10.224;2022-08-19T05:08:26;29.70;;;21.00;;
5491;SDS011;2768;53.540;10.224;2022-08-19T05:14:23;36.60;;;22.80;;
5491;SDS011;2768;53.540;10.224;2022-08-19T05:20:16;30.23;;;22.13;;
5491;SDS011;2768;53.540;10.224;2022-08-19T05:26:27;30.97;;;22.63;;
5491;SDS011;2768;53.540;10.224;2022-08-19T05:32:22;33.70;;;22.30;;
5491;SDS011;2768;53.540;10.224;2022-08-19T05:38:16;32.20;;;22.97;;
5491;SDS011;2768;53.540;10.224;2022-08-19T05:44:10;36.27;;;22.50;;
5491;SDS011;2768;53.540;10.224;2022-08-19T05:50:06;34.97;;;21.60;;
5491;SDS011;2768;53.540;10.224;2022-08-19T05:56:03;34.40;;;23.47;;
5491;SDS011;2768;53.540;10.224;2022-08-19T06:01:57;34.63;;;21.97;;
5491;SDS011;2768;53.540;10.224;2022-08-19T06:07:53;34.80;;;21.87;;
5491;SDS011;2768;53.540;10.224;2022-08-19T06:13:47;35.67;;;22.43;;
5491;SDS011;2768;53.540;10.224;2022-08-19T06:19:50;35.10;;;22.13;;
5491;SDS011;2768;53.540;10.224;2022-08-19T06:25:45;34.03;;;21.93;;
5491;SDS011;2768;53.540;10.224;2022-08-19T06:31:40;37.53;;;24.87;;
5491;SDS011;2768;53.540;10.224;2022-08-19T06:37:36;39.00;;;24.63;;
5491;SDS011;2768;53.540;10.224;2022-08-19T06:43:35;37.03;;;23.10;;
5491;SDS011;2768;53.540;10.224;2022-08-19T06:49:32;38.73;;;24.23;;
5491;SDS011;2768;53.540;10.224;2022-08-19T06:55:26;39.37;;;24.60;;
5491;SDS011;2768;53.540;10.224;2022-08-19T07:01:25;35.30;;;23.70;;
5491;SDS011;2768;53.540;10.224;2022-08-19T07:07:19;32.70;;;21.07;;
5491;SDS011;2768;53.540;10.224;2022-08-19T07:13:14;32.13;;;21.10;;
5491;SDS011;2768;53.540;10.224;2022-08-19T07:19:09;29.77;;;20.43;;
5491;SDS011;2768;53.540;10.224;2022-08-19T07:25:07;29.57;;;20.30;;
5491;SDS011;2768;53.540;10.224;2022-08-19T07:31:01;23.83;;;17.40;;
5491;SDS011;2768;53.540;10.224;2022-08-19T07:36:57;30.47;;;19.53;;
5491;SDS011;2768;53.540;10.224;2022-08-19T07:42:51;27.33;;;20.00;;
5491;SDS011;2768;53.540;10.224;2022-08-19T07:48:44;28.93;;;19.90;;
5491;SDS011;2768;53.540;10.224;2022-08-19T07:54:39;29.00;;;20.07;;
5491;SDS011;2768;53.540;10.224;2022-08-19T08:00:33;29.03;;;20.30;;
5491;SDS011;2768;53.540;10.224;2022-08-19T08:06:27;35.90;;;24.30;;
5491;SDS011;2768;53.540;10.224;2022-08-19T08:12:39;34.37;;;24.97;;
5491;SDS011;2768;53.540;10.224;2022-08-19T08:18:47;32.43;;;22.97;;
5491;SDS011;2768;53.540;10.224;2022-08-19T08:24:44;33.20;;;21.20;;
5491;SDS011;2768;53.540;10.224;2022-08-19T08:30:38;34.73;;;23.73;;
5491;SDS011;2768;53.540;10.224;2022-08-19T08:36:36;32.03;;;19.97;;
5491;SDS011;2768;53.540;10.224;2022-08-19T08:42:34;34.53;;;22.20;;
5491;SDS011;2768;53.540;10.224;2022-08-19T08:48:41;38.90;;;24.70;;
5491;SDS011;2768;53.540;10.224;2022-08-19T08:54:43;35.33;;;24.47;;
5491;SDS011;2768;53.540;10.224;2022-08-19T09:00:47;39.30;;;24.03;;
5491;SDS011;2768;53.540;10.224;2022-08-19T09:06:44;39.27;;;22.97;;
5491;SDS011;2768;53.540;10.224;2022-08-19T09:12:45;34.03;;;23.70;;
5491;SDS011;2768;53.540;10.224;2022-08-19T09:18:48;31.73;;;22.20;;
5491;SDS011;2768;53.540;10.224;2022-08-19T09:24:46;30.00;;;20.73;;
5491;SDS011;2768;53.540;10.224;2022-08-19T09:30:40;30.53;;;20.57;;
5491;SDS011;2768;53.540;10.224;2022-08-19T09:36:34;28.23;;;19.93;;
5491;SDS011;2768;53.540;10.224;2022-08-19T09:42:31;33.10;;;21.50;;
5491;SDS011;2768;53.540;10.224;2022-08-19T09:48:25;26.37;;;19.17;;
5491;SDS011;2768;53.540;10.224;2022-08-19T09:54:19;32.60;;;22.77;;
5491;SDS011;2768;53.540;10.224;2022-08-19T10:00:17;30.77;;;22.33;;
5491;SDS011;2768;53.540;10.224;2022-08-19T10:06:16;23.77;;;18.10;;
5491;SDS011;2768;53.540;10.224;2022-08-19T10:12:37;26.53;;;18.87;;
5491;SDS011;2768;53.540;10.224;2022-08-19T10:18:32;21.80;;;16.10;;
5491;SDS011;2768;53.540;10.224;2022-08-19T10:24:26;24.20;;;18.30;;
5491;SDS011;2768;53.540;10.224;2022-08-19T10:30:20;22.27;;;18.87;;
5491;SDS011;2768;53.540;10.224;2022-08-19T10:36:17;27.67;;;20.57;;
5491;SDS011;2768;53.540;10.224;2022-08-19T10:42:13;30.67;;;20.23;;
5491;SDS011;2768;53.540;10.224;2022-08-19T10:48:07;29.40;;;20.97;;
5491;SDS011;2768;53.540;10.224;2022-08-19T10:54:07;23.40;;;17.77;;
5491;SDS011;2768;53.540;10.224;2022-08-19T11:00:03;22.83;;;17.07;;
5491;SDS011;2768;53.540;10.224;2022-08-19T11:05:58;24.67;;;17.93;;
5491;SDS011;2768;53.540;10.224;2022-08-19T11:11:53;27.43;;;20.13;;
5491;SDS011;2768;53.540;10.224;2022-08-19T11:17:53;32.00;;;19.40;;
5491;SDS011;2768;53.540;10.224;2022-08-19T11:23:48;22.40;;;17.17;;
5491;SDS011;2768;53.540;10.224;2022-08-19T11:29:44;24.23;;;16.57;;
5491;SDS011;2768;53.540;10.224;2022-08-19T11:35:38;28.43;;;19.90;;
5491;SDS011;2768;53.540;10.224;2022-08-19T11:41:32;31.17;;;20.70;;
5491;SDS011;2768;53.540;10.224;2022-08-19T11:47:27;32.27;;;18.53;;
5491;SDS011;2768;53.540;10.224;2022-08-19T11:53:22;27.63;;;19.77;;
5491;SDS011;2768;53.540;10.224;2022-08-19T11:59:16;26.27;;;20.33;;
5491;SDS011;2768;53.540;10.224;2022-08-19T12:05:11;28.47;;;19.43;;
5491;SDS011;2768;53.540;10.224;2022-08-19T12:11:04;25.73;;;17.73;;
5491;SDS011;2768;53.540;10.224;2022-08-19T12:16:59;26.67;;;19.07;;
5491;SDS011;2768;53.540;10.224;2022-08-19T12:22:54;25.40;;;17.10;;
5491;SDS011;2768;53.540;10.224;2022-08-19T12:28:48;26.07;;;18.17;;
5491;SDS011;2768;53.540;10.224;2022-08-19T12:34:42;21.43;;;17.20;;
5491;SDS011;2768;53.540;10.224;2022-08-19T12:40:37;20.93;;;16.47;;
5491;SDS011;2768;53.540;10.224;2022-08-19T12:46:31;21.27;;;16.93;;
5491;SDS011;2768;53.540;10.224;2022-08-19T12:52:25;21.20;;;16.67;;
5491;SDS011;2768;53.540;10.224;2022-08-19T12:58:20;24.20;;;17.87;;
5491;SDS011;2768;53.540;10.224;2022-08-19T13:04:17;17.70;;;15.80;;
5491;SDS011;2768;53.540;10.224;2022-08-19T13:10:13;19.37;;;16.90;;
5491;SDS011;2768;53.540;10.224;2022-08-19T13:16:09;20.70;;;15.47;;
5491;SDS011;2768;53.540;10.224;2022-08-19T13:22:04;20.30;;;17.87;;
5491;SDS011;2768;53.540;10.224;2022-08-19T13:28:05;16.70;;;13.17;;
5491;SDS011;2768;53.540;10.224;2022-08-19T13:33:59;14.33;;;12.83;;
5491;SDS011;2768;53.540;10.224;2022-08-19T13:39:52;15.33;;;13.73;;
5491;SDS011;2768;53.540;10.224;2022-08-19T13:45:46;15.77;;;14.17;;
5491;SDS011;2768;53.540;10.224;2022-08-19T13:51:41;18.73;;;14.97;;
5491;SDS011;2768;53.540;10.224;2022-08-19T13:57:35;17.40;;;15.60;;
5491;SDS011;2768;53.540;10.224;2022-08-19T14:03:31;20.27;;;15.77;;
5491;SDS011;2768;53.540;10.224;2022-08-19T14:09:26;18.87;;;13.60;;
5491;SDS011;2768;53.540;10.224;2022-08-19T14:15:20;12.77;;;11.53;;
5491;SDS011;2768;53.540;10.224;2022-08-19T14:21:15;15.03;;;13.40;;
5491;SDS011;2768;53.540;10.224;2022-08-19T14:27:10;15.60;;;14.03;;
5491;SDS011;2768;53.540;10.224;2022-08-19T14:33:05;15.37;;;13.77;;
5491;SDS011;2768;53.540;10.224;2022-08-19T14:38:59;16.63;;;14.00;;
5491;SDS011;2768;53.540;10.224;2022-08-19T14:44:56;13.30;;;11.90;;
5491;SDS011;2768;53.540;10.224;2022-08-19T14:50:50;13.67;;;12.37;;
5491;SDS011;2768;53.540;10.224;2022-08-19T14:56:43;14.17;;;12.87;;
5491;SDS011;2768;53.540;10.224;2022-08-19T15:02:38;14.17;;;12.70;;
5491;SDS011;2768;53.540;10.224;2022-08-19T15:08:32;12.40;;;11.20;;
5491;SDS011;2768;53.540;10.224;2022-08-19T15:14:28;12.30;;;11.10;;
5491;SDS011;2768;53.540;10.224;2022-08-19T15:20:27;11.90;;;10.73;;
5491;SDS011;2768;53.540;10.224;2022-08-19T15:26:22;12.90;;;11.47;;
5491;SDS011;2768;53.540;10.224;2022-08-19T15:32:16;12.43;;;11.27;;
5491;SDS011;2768;53.540;10.224;2022-08-19T15:38:11;13.47;;;12.00;;
5491;SDS011;2768;53.540;10.224;2022-08-19T15:44:06;12.53;;;11.27;;
5491;SDS011;2768;53.540;10.224;2022-08-19T15:50:00;13.50;;;12.30;;
5491;SDS011;2768;53.540;10.224;2022-08-19T15:56:02;12.30;;;11.07;;
5491;SDS011;2768;53.540;10.224;2022-08-19T16:01:55;13.73;;;12.43;;
5491;SDS011;2768;53.540;10.224;2022-08-19T16:08:07;13.33;;;10.97;;
5491;SDS011;2768;53.540;10.224;2022-08-19T16:14:02;12.53;;;11.23;;
5491;SDS011;2768;53.540;10.224;2022-08-19T16:19:57;13.30;;;11.80;;
5491;SDS011;2768;53.540;10.224;2022-08-19T16:25:51;15.03;;;13.47;;
5491;SDS011;2768;53.540;10.224;2022-08-19T16:31:45;12.73;;;11.50;;
5491;SDS011;2768;53.540;10.224;2022-08-19T16:37:40;12.37;;;11.23;;
5491;SDS011;2768;53.540;10.224;2022-08-19T16:43:33;11.13;;;10.13;;
5491;SDS011;2768;53.540;10.224;2022-08-19T16:49:31;11.53;;;10.43;;
5491;SDS011;2768;53.540;10.224;2022-08-19T16:55:45;11.63;;;10.53;;
5491;SDS011;2768;53.540;10.224;2022-08-19T17:01:41;11.77;;;10.10;;
5491;SDS011;2768;53.540;10.224;2022-08-19T17:07:36;9.93;;;9.13;;
5491;SDS011;2768;53.540;10.224;2022-08-19T17:13:29;10.10;;;9.20;;
5491;SDS011;2768;53.540;10.224;2022-08-19T17:19:22;9.10;;;8.30;;
5491;SDS011;2768;53.540;10.224;2022-08-19T17:25:17;11.30;;;9.57;;
5491;SDS011;2768;53.540;10.224;2022-08-19T17:31:10;10.17;;;9.30;;
5491;SDS011;2768;53.540;10.224;2022-08-19T17:37:04;13.13;;;9.13;;
5491;SDS011;2768;53.540;10.224;2022-08-19T17:42:58;11.03;;;9.83;;
5491;SDS011;2768;53.540;10.224;2022-08-19T17:48:52;9.87;;;8.97;;
5491;SDS011;2768;53.540;10.224;2022-08-19T17:54:47;9.50;;;8.67;;
5491;SDS011;2768;53.540;10.224;2022-08-19T18:00:41;11.37;;;10.37;;
5491;SDS011;2768;53.540;10.224;2022-08-19T18:06:45;12.03;;;9.60;;
5491;SDS011;2768;53.540;10.224;2022-08-19T18:12:44;10.43;;;9.33;;
5491;SDS011;2768;53.540;10.224;2022-08-19T18:18:39;10.87;;;9.87;;
5491;SDS011;2768;53.540;10.224;2022-08-19T18:24:36;11.43;;;10.00;;
5491;SDS011;2768;53.540;10.224;2022-08-19T18:30:29;10.50;;;9.57;;
5491;SDS011;2768;53.540;10.224;2022-08-19T18:36:26;9.40;;;8.60;;
5491;SDS011;2768;53.540;10.224;2022-08-19T18:42:40;10.73;;;9.63;;
5491;SDS011;2768;53.540;10.224;2022-08-19T18:48:52;9.20;;;8.40;;
5491;SDS011;2768;53.540;10.224;2022-08-19T18:54:59;12.13;;;10.80;;
5491;SDS011;2768;53.540;10.224;2022-08-19T19:00:53;10.57;;;9.70;;
5491;SDS011;2768;53.540;10.224;2022-08-19T19:06:47;10.63;;;9.67;;
5491;SDS011;2768;53.540;10.224;2022-08-19T19:12:43;11.27;;;10.10;;
5491;SDS011;2768;53.540;10.224;2022-08-19T19:18:36;10.93;;;10.03;;
5491;SDS011;2768;53.540;10.224;2022-08-19T19:24:31;11.43;;;10.43;;
5491;SDS011;2768;53.540;10.224;2022-08-19T19:30:26;12.40;;;10.47;;
5491;SDS011;2768;53.540;10.224;2022-08-19T19:36:21;10.40;;;9.50;;
5491;SDS011;2768;53.540;10.224;2022-08-19T19:42:16;11.27;;;10.27;;
5491;SDS011;2768;53.540;10.224;2022-08-19T19:48:13;11.83;;;10.73;;
5491;SDS011;2768;53.540;10.224;2022-08-19T19:54:07;9.80;;;8.90;;
5491;SDS011;2768;53.540;10.224;2022-08-19T20:00:04;11.17;;;10.17;;
5491;SDS011;2768;53.540;10.224;2022-08-19T20:06:01;12.67;;;11.57;;
5491;SDS011;2768;53.540;10.224;2022-08-19T20:11:54;11.60;;;10.50;;
5491;SDS011;2768;53.540;10.224;2022-08-19T20:17:49;13.40;;;12.17;;
5491;SDS011;2768;53.540;10.224;2022-08-19T20:23:44;13.47;;;12.20;;
5491;SDS011;2768;53.540;10.224;2022-08-19T20:29:57;12.03;;;11.03;;
5491;SDS011;2768;53.540;10.224;2022-08-19T20:35:52;12.13;;;11.13;;
5491;SDS011;2768;53.540;10.224;2022-08-19T20:41:51;11.60;;;10.60;;
5491;SDS011;2768;53.540;10.224;2022-08-19T20:47:47;12.43;;;10.90;;
5491;SDS011;2768;53.540;10.224;2022-08-19T20:53:42;12.97;;;11.80;;
5491;SDS011;2768;53.540;10.224;2022-08-19T20:59:40;13.00;;;11.80;;
5491;SDS011;2768;53.540;10.224;2022-08-19T21:05:35;13.87;;;12.57;;
5491;SDS011;2768;53.540;10.224;2022-08-19T21:11:29;12.20;;;11.03;;
5491;SDS011;2768;53.540;10.224;2022-08-19T21:17:24;13.80;;;12.10;;
5491;SDS011;2768;53.540;10.224;2022-08-19T21:23:18;13.53;;;12.33;;
5491;SDS011;2768;53.540;10.224;2022-08-19T21:29:14;12.23;;;11.23;;
5491;SDS011;2768;53.540;10.224;2022-08-19T21:35:10;13.63;;;12.40;;
5491;SDS011;2768;53.540;10.224;2022-08-19T21:41:06;13.07;;;11.87;;
5491;SDS011;2768;53.540;10.224;2022-08-19T21:47:05;14.17;;;12.87;;
5491;SDS011;2768;53.540;10.224;2022-08-19T21:53:02;14.67;;;13.23;;
5491;SDS011;2768;53.540;10.224;2022-08-19T21:58:56;15.77;;;14.10;;
5491;SDS011;2768;53.540;10.224;2022-08-19T22:04:53;14.80;;;13.40;;
5491;SDS011;2768;53.540;10.224;2022-08-19T22:10:53;14.73;;;13.43;;
5491;SDS011;2768;53.540;10.224;2022-08-19T22:16:52;13.03;;;11.80;;
5491;SDS011;2768;53.540;10.224;2022-08-19T22:22:47;14.80;;;13.30;;
5491;SDS011;2768;53.540;10.224;2022-08-19T22:28:49;14.57;;;13.27;;
5491;SDS011;2768;53.540;10.224;2022-08-19T22:34:49;14.70;;;13.30;;
5491;SDS011;2768;53.540;10.224;2022-08-19T22:40:52;16.47;;;14.97;;
5491;SDS011;2768;53.540;10.224;2022-08-19T22:46:53;15.30;;;13.80;;
5491;SDS011;2768;53.540;10.224;2022-08-19T22:52:53;14.60;;;13.30;;
5491;SDS011;2768;53.540;10.224;2022-08-19T22:58:48;15.33;;;13.77;;
5491;SDS011;2768;53.540;10.224;2022-08-19T23:04:48;15.73;;;14.23;;
5491;SDS011;2768;53.540;10.224;2022-08-19T23:10:43;15.60;;;14.10;;
5491;SDS011;2768;53.540;10.224;2022-08-19T23:16:42;15.70;;;14.10;;
5491;SDS011;2768;53.540;10.224;2022-08-19T23:22:44;15.70;;;14.30;;
5491;SDS011;2768;53.540;10.224;2022-08-19T23:28:39;16.77;;;15.27;;
5491;SDS011;2768;53.540;10.224;2022-08-19T23:34:51;15.80;;;14.30;;
5491;SDS011;2768;53.540;10.224;2022-08-19T23:40:49;17.67;;;15.87;;
5491;SDS011;2768;53.540;10.224;2022-08-19T23:46:48;18.90;;;17.10;;
5491;SDS011;2768;53.540;10.224;2022-08-19T23:52:50;18.83;;;16.70;;
5491;SDS011;2768;53.540;10.224;2022-08-19T23:58:48;19.30;;;17.43;;
